sensor_id;sensor_type;location;lat;lon;timestamp;P1;durP1;ratioP1;P2;durP2;ratioP2
56005;SDS011;41888;44.696;10.522;2023-10-13T00:02:00;26.08;;;13.40;;
56005;SDS011;41888;44.696;10.522;2023-10-13T00:04:29;26.15;;;13.65;;
56005;SDS011;41888;44.696;10.522;2023-10-13T00:07:00;25.95;;;14.20;;
56005;SDS011;41888;44.696;10.522;2023-10-13T00:09:28;26.02;;;13.52;;
56005;SDS011;41888;44.696;10.522;2023-10-13T00:11:59;24.60;;;13.77;;
56005;SDS011;41888;44.696;10.522;2023-10-13T00:14:25;25.92;;;14.10;;
56005;SDS011;41888;44.696;10.522;2023-10-13T00:17:03;25.35;;;14.70;;
56005;SDS011;41888;44.696;10.522;2023-10-13T00:19:36;25.27;;;13.18;;
56005;SDS011;41888;44.696;10.522;2023-10-13T00:22:07;30.05;;;13.55;;
56005;SDS011;41888;44.696;10.522;2023-10-13T00:24:38;26.05;;;13.70;;
56005;SDS011;41888;44.696;10.522;2023-10-13T00:27:18;25.58;;;14.32;;
56005;SDS011;41888;44.696;10.522;2023-10-13T00:29:55;23.50;;;12.48;;
56005;SDS011;41888;44.696;10.522;2023-10-13T00:32:40;25.20;;;13.27;;
56005;SDS011;41888;44.696;10.522;2023-10-13T00:35:11;33.17;;;13.77;;
56005;SDS011;41888;44.696;10.522;2023-10-13T00:37:40;28.50;;;13.23;;
56005;SDS011;41888;44.696;10.522;2023-10-13T00:40:09;28.83;;;12.55;;
56005;SDS011;41888;44.696;10.522;2023-10-13T00:42:59;21.52;;;12.05;;
56005;SDS011;41888;44.696;10.522;2023-10-13T00:45:48;30.83;;;12.88;;
56005;SDS011;41888;44.696;10.522;2023-10-13T00:48:25;24.75;;;13.07;;
56005;SDS011;41888;44.696;10.522;2023-10-13T00:51:03;23.55;;;12.70;;
56005;SDS011;41888;44.696;10.522;2023-10-13T00:53:43;27.93;;;13.10;;
56005;SDS011;41888;44.696;10.522;2023-10-13T00:56:12;28.67;;;12.10;;
56005;SDS011;41888;44.696;10.522;2023-10-13T00:58:47;22.67;;;12.57;;
56005;SDS011;41888;44.696;10.522;2023-10-13T01:01:17;26.05;;;12.10;;
56005;SDS011;41888;44.696;10.522;2023-10-13T01:03:47;20.33;;;11.40;;
56005;SDS011;41888;44.696;10.522;2023-10-13T01:06:18;25.17;;;13.32;;
56005;SDS011;41888;44.696;10.522;2023-10-13T01:08:45;20.45;;;11.27;;
56005;SDS011;41888;44.696;10.522;2023-10-13T01:11:18;21.15;;;12.15;;
56005;SDS011;41888;44.696;10.522;2023-10-13T01:13:48;21.63;;;10.10;;
56005;SDS011;41888;44.696;10.522;2023-10-13T01:16:21;26.80;;;11.23;;
56005;SDS011;41888;44.696;10.522;2023-10-13T01:18:51;20.75;;;11.50;;
56005;SDS011;41888;44.696;10.522;2023-10-13T01:21:18;22.35;;;10.55;;
56005;SDS011;41888;44.696;10.522;2023-10-13T01:23:45;21.90;;;10.10;;
56005;SDS011;41888;44.696;10.522;2023-10-13T01:26:13;21.38;;;11.68;;
56005;SDS011;41888;44.696;10.522;2023-10-13T01:28:46;24.25;;;12.82;;
56005;SDS011;41888;44.696;10.522;2023-10-13T01:31:13;28.05;;;12.80;;
56005;SDS011;41888;44.696;10.522;2023-10-13T01:33:49;27.58;;;12.45;;
56005;SDS011;41888;44.696;10.522;2023-10-13T01:36:19;21.23;;;11.95;;
56005;SDS011;41888;44.696;10.522;2023-10-13T01:38:46;22.33;;;11.20;;
56005;SDS011;41888;44.696;10.522;2023-10-13T01:41:13;22.05;;;11.18;;
56005;SDS011;41888;44.696;10.522;2023-10-13T01:43:39;26.90;;;11.70;;
56005;SDS011;41888;44.696;10.522;2023-10-13T01:46:06;25.80;;;11.98;;
56005;SDS011;41888;44.696;10.522;2023-10-13T01:48:34;24.38;;;10.93;;
56005;SDS011;41888;44.696;10.522;2023-10-13T01:51:05;19.67;;;11.45;;
56005;SDS011;41888;44.696;10.522;2023-10-13T01:53:35;18.85;;;11.07;;
56005;SDS011;41888;44.696;10.522;2023-10-13T01:56:02;21.30;;;11.05;;
56005;SDS011;41888;44.696;10.522;2023-10-13T01:58:39;19.13;;;10.15;;
56005;SDS011;41888;44.696;10.522;2023-10-13T02:01:12;20.45;;;9.82;;
56005;SDS011;41888;44.696;10.522;2023-10-13T02:03:51;18.67;;;9.85;;
56005;SDS011;41888;44.696;10.522;2023-10-13T02:06:30;17.83;;;9.85;;
56005;SDS011;41888;44.696;10.522;2023-10-13T02:09:02;20.67;;;9.63;;
56005;SDS011;41888;44.696;10.522;2023-10-13T02:11:41;18.48;;;9.98;;
56005;SDS011;41888;44.696;10.522;2023-10-13T02:14:12;14.93;;;9.20;;
56005;SDS011;41888;44.696;10.522;2023-10-13T02:16:42;17.00;;;9.18;;
56005;SDS011;41888;44.696;10.522;2023-10-13T02:19:11;21.23;;;10.18;;
56005;SDS011;41888;44.696;10.522;2023-10-13T02:21:40;18.83;;;10.77;;
56005;SDS011;41888;44.696;10.522;2023-10-13T02:24:09;17.67;;;9.52;;
56005;SDS011;41888;44.696;10.522;2023-10-13T02:26:43;16.88;;;8.75;;
56005;SDS011;41888;44.696;10.522;2023-10-13T02:29:10;16.92;;;9.32;;
56005;SDS011;41888;44.696;10.522;2023-10-13T02:31:39;16.15;;;9.75;;
56005;SDS011;41888;44.696;10.522;2023-10-13T02:34:08;17.05;;;9.05;;
56005;SDS011;41888;44.696;10.522;2023-10-13T02:36:37;20.45;;;9.95;;
56005;SDS011;41888;44.696;10.522;2023-10-13T02:39:14;19.02;;;9.48;;
56005;SDS011;41888;44.696;10.522;2023-10-13T02:41:41;15.43;;;8.95;;
56005;SDS011;41888;44.696;10.522;2023-10-13T02:44:12;20.27;;;8.95;;
56005;SDS011;41888;44.696;10.522;2023-10-13T02:46:45;13.02;;;7.43;;
56005;SDS011;41888;44.696;10.522;2023-10-13T02:49:15;21.55;;;9.60;;
56005;SDS011;41888;44.696;10.522;2023-10-13T02:51:44;20.17;;;9.93;;
56005;SDS011;41888;44.696;10.522;2023-10-13T02:54:11;16.23;;;9.20;;
56005;SDS011;41888;44.696;10.522;2023-10-13T02:56:43;17.15;;;8.63;;
56005;SDS011;41888;44.696;10.522;2023-10-13T02:59:22;17.17;;;8.32;;
56005;SDS011;41888;44.696;10.522;2023-10-13T03:02:05;16.27;;;10.02;;
56005;SDS011;41888;44.696;10.522;2023-10-13T03:04:51;18.52;;;10.18;;
56005;SDS011;41888;44.696;10.522;2023-10-13T03:07:24;17.27;;;9.25;;
56005;SDS011;41888;44.696;10.522;2023-10-13T03:09:57;17.15;;;8.13;;
56005;SDS011;41888;44.696;10.522;2023-10-13T03:12:25;15.10;;;8.40;;
56005;SDS011;41888;44.696;10.522;2023-10-13T03:14:58;18.92;;;9.13;;
56005;SDS011;41888;44.696;10.522;2023-10-13T03:17:43;17.83;;;8.82;;
56005;SDS011;41888;44.696;10.522;2023-10-13T03:20:13;15.07;;;8.23;;
56005;SDS011;41888;44.696;10.522;2023-10-13T03:22:58;16.52;;;7.53;;
56005;SDS011;41888;44.696;10.522;2023-10-13T03:25:25;18.55;;;7.53;;
56005;SDS011;41888;44.696;10.522;2023-10-13T03:27:58;17.13;;;7.28;;
56005;SDS011;41888;44.696;10.522;2023-10-13T03:30:24;14.77;;;7.07;;
56005;SDS011;41888;44.696;10.522;2023-10-13T03:33:04;14.27;;;7.70;;
56005;SDS011;41888;44.696;10.522;2023-10-13T03:35:33;17.85;;;7.07;;
56005;SDS011;41888;44.696;10.522;2023-10-13T03:38:03;16.13;;;7.20;;
56005;SDS011;41888;44.696;10.522;2023-10-13T03:40:45;18.80;;;7.82;;
56005;SDS011;41888;44.696;10.522;2023-10-13T03:43:19;17.05;;;6.80;;
56005;SDS011;41888;44.696;10.522;2023-10-13T03:45:49;16.23;;;8.15;;
56005;SDS011;41888;44.696;10.522;2023-10-13T03:48:34;18.23;;;8.40;;
56005;SDS011;41888;44.696;10.522;2023-10-13T03:51:16;15.50;;;7.70;;
56005;SDS011;41888;44.696;10.522;2023-10-13T03:53:43;16.00;;;8.05;;
56005;SDS011;41888;44.696;10.522;2023-10-13T03:56:23;16.63;;;7.75;;
56005;SDS011;41888;44.696;10.522;2023-10-13T03:59:04;19.38;;;7.85;;
56005;SDS011;41888;44.696;10.522;2023-10-13T04:01:34;18.85;;;9.20;;
56005;SDS011;41888;44.696;10.522;2023-10-13T04:04:16;14.60;;;8.30;;
56005;SDS011;41888;44.696;10.522;2023-10-13T04:07:16;16.92;;;8.30;;
56005;SDS011;41888;44.696;10.522;2023-10-13T04:09:51;13.48;;;7.45;;
56005;SDS011;41888;44.696;10.522;2023-10-13T04:12:37;17.40;;;8.80;;
56005;SDS011;41888;44.696;10.522;2023-10-13T04:15:12;19.75;;;7.95;;
56005;SDS011;41888;44.696;10.522;2023-10-13T04:17:46;18.92;;;8.48;;
56005;SDS011;41888;44.696;10.522;2023-10-13T04:20:13;15.30;;;8.40;;
56005;SDS011;41888;44.696;10.522;2023-10-13T04:22:58;16.33;;;9.10;;
56005;SDS011;41888;44.696;10.522;2023-10-13T04:25:24;15.15;;;8.02;;
56005;SDS011;41888;44.696;10.522;2023-10-13T04:28:08;13.45;;;8.13;;
56005;SDS011;41888;44.696;10.522;2023-10-13T04:30:41;20.08;;;9.25;;
56005;SDS011;41888;44.696;10.522;2023-10-13T04:33:21;22.25;;;7.82;;
56005;SDS011;41888;44.696;10.522;2023-10-13T04:36:04;15.88;;;6.68;;
56005;SDS011;41888;44.696;10.522;2023-10-13T04:38:47;15.65;;;7.43;;
56005;SDS011;41888;44.696;10.522;2023-10-13T04:41:29;15.57;;;7.85;;
56005;SDS011;41888;44.696;10.522;2023-10-13T04:44:22;13.90;;;7.63;;
56005;SDS011;41888;44.696;10.522;2023-10-13T04:46:49;13.88;;;6.93;;
56005;SDS011;41888;44.696;10.522;2023-10-13T04:49:25;15.60;;;9.00;;
56005;SDS011;41888;44.696;10.522;2023-10-13T04:51:57;15.52;;;7.72;;
56005;SDS011;41888;44.696;10.522;2023-10-13T04:54:27;15.68;;;7.80;;
56005;SDS011;41888;44.696;10.522;2023-10-13T04:57:12;14.77;;;7.93;;
56005;SDS011;41888;44.696;10.522;2023-10-13T04:59:50;15.25;;;7.13;;
56005;SDS011;41888;44.696;10.522;2023-10-13T05:02:35;13.43;;;7.95;;
56005;SDS011;41888;44.696;10.522;2023-10-13T05:05:10;17.42;;;7.93;;
56005;SDS011;41888;44.696;10.522;2023-10-13T05:07:43;19.05;;;8.75;;
56005;SDS011;41888;44.696;10.522;2023-10-13T05:10:29;16.42;;;8.75;;
56005;SDS011;41888;44.696;10.522;2023-10-13T05:13:15;15.93;;;8.45;;
56005;SDS011;41888;44.696;10.522;2023-10-13T05:15:59;17.00;;;8.10;;
56005;SDS011;41888;44.696;10.522;2023-10-13T05:18:44;15.23;;;8.05;;
56005;SDS011;41888;44.696;10.522;2023-10-13T05:21:29;16.05;;;8.68;;
56005;SDS011;41888;44.696;10.522;2023-10-13T05:24:14;23.08;;;9.73;;
56005;SDS011;41888;44.696;10.522;2023-10-13T05:29:47;18.30;;;8.57;;
56005;SDS011;41888;44.696;10.522;2023-10-13T05:32:32;14.77;;;7.80;;
56005;SDS011;41888;44.696;10.522;2023-10-13T05:35:19;16.02;;;7.55;;
56005;SDS011;41888;44.696;10.522;2023-10-13T05:38:04;15.07;;;8.27;;
56005;SDS011;41888;44.696;10.522;2023-10-13T05:40:56;14.50;;;8.13;;
56005;SDS011;41888;44.696;10.522;2023-10-13T05:43:42;15.95;;;8.68;;
56005;SDS011;41888;44.696;10.522;2023-10-13T05:46:26;24.08;;;8.20;;
56005;SDS011;41888;44.696;10.522;2023-10-13T05:48:53;17.15;;;9.20;;
56005;SDS011;41888;44.696;10.522;2023-10-13T05:51:22;20.83;;;9.05;;
56005;SDS011;41888;44.696;10.522;2023-10-13T05:54:09;21.00;;;9.80;;
56005;SDS011;41888;44.696;10.522;2023-10-13T05:56:48;16.75;;;8.75;;
56005;SDS011;41888;44.696;10.522;2023-10-13T05:59:35;16.77;;;10.10;;
56005;SDS011;41888;44.696;10.522;2023-10-13T06:02:21;17.00;;;8.98;;
56005;SDS011;41888;44.696;10.522;2023-10-13T06:05:10;20.08;;;9.55;;
56005;SDS011;41888;44.696;10.522;2023-10-13T06:07:57;22.55;;;9.07;;
56005;SDS011;41888;44.696;10.522;2023-10-13T06:10:43;22.25;;;10.13;;
56005;SDS011;41888;44.696;10.522;2023-10-13T06:13:28;16.02;;;8.43;;
56005;SDS011;41888;44.696;10.522;2023-10-13T06:16:14;14.65;;;8.23;;
56005;SDS011;41888;44.696;10.522;2023-10-13T06:19:00;18.30;;;8.20;;
56005;SDS011;41888;44.696;10.522;2023-10-13T06:21:45;15.73;;;8.38;;
56005;SDS011;41888;44.696;10.522;2023-10-13T06:24:30;17.98;;;9.15;;
56005;SDS011;41888;44.696;10.522;2023-10-13T06:27:15;16.38;;;9.55;;
56005;SDS011;41888;44.696;10.522;2023-10-13T06:30:01;19.60;;;9.55;;
56005;SDS011;41888;44.696;10.522;2023-10-13T06:32:29;20.23;;;10.70;;
56005;SDS011;41888;44.696;10.522;2023-10-13T06:34:57;19.85;;;9.20;;
56005;SDS011;41888;44.696;10.522;2023-10-13T06:37:27;15.32;;;8.55;;
56005;SDS011;41888;44.696;10.522;2023-10-13T06:39:58;16.65;;;9.40;;
56005;SDS011;41888;44.696;10.522;2023-10-13T06:42:31;19.88;;;8.88;;
56005;SDS011;41888;44.696;10.522;2023-10-13T06:45:00;19.55;;;8.23;;
56005;SDS011;41888;44.696;10.522;2023-10-13T06:47:33;14.60;;;8.20;;
56005;SDS011;41888;44.696;10.522;2023-10-13T06:52:49;18.27;;;7.70;;
56005;SDS011;41888;44.696;10.522;2023-10-13T06:55:20;14.85;;;8.27;;
56005;SDS011;41888;44.696;10.522;2023-10-13T06:57:53;15.27;;;7.97;;
56005;SDS011;41888;44.696;10.522;2023-10-13T07:00:24;21.67;;;9.75;;
56005;SDS011;41888;44.696;10.522;2023-10-13T07:02:54;16.40;;;7.97;;
56005;SDS011;41888;44.696;10.522;2023-10-13T07:05:33;16.65;;;9.07;;
56005;SDS011;41888;44.696;10.522;2023-10-13T07:08:00;10.50;;;7.15;;
56005;SDS011;41888;44.696;10.522;2023-10-13T07:10:29;17.58;;;7.80;;
56005;SDS011;41888;44.696;10.522;2023-10-13T07:12:57;18.25;;;8.43;;
56005;SDS011;41888;44.696;10.522;2023-10-13T07:15:25;14.65;;;7.97;;
56005;SDS011;41888;44.696;10.522;2023-10-13T07:17:54;22.25;;;9.18;;
56005;SDS011;41888;44.696;10.522;2023-10-13T07:20:27;15.05;;;8.52;;
56005;SDS011;41888;44.696;10.522;2023-10-13T07:22:53;20.65;;;8.82;;
56005;SDS011;41888;44.696;10.522;2023-10-13T07:25:28;13.82;;;7.50;;
56005;SDS011;41888;44.696;10.522;2023-10-13T07:27:58;15.70;;;8.05;;
56005;SDS011;41888;44.696;10.522;2023-10-13T07:30:26;16.33;;;8.57;;
56005;SDS011;41888;44.696;10.522;2023-10-13T07:32:52;15.35;;;7.90;;
56005;SDS011;41888;44.696;10.522;2023-10-13T07:35:23;14.70;;;7.70;;
56005;SDS011;41888;44.696;10.522;2023-10-13T07:37:55;19.52;;;8.45;;
56005;SDS011;41888;44.696;10.522;2023-10-13T07:40:24;15.65;;;7.55;;
56005;SDS011;41888;44.696;10.522;2023-10-13T07:42:51;16.35;;;7.88;;
56005;SDS011;41888;44.696;10.522;2023-10-13T07:45:24;15.15;;;7.88;;
56005;SDS011;41888;44.696;10.522;2023-10-13T07:47:57;13.68;;;8.00;;
56005;SDS011;41888;44.696;10.522;2023-10-13T07:50:25;13.60;;;7.13;;
56005;SDS011;41888;44.696;10.522;2023-10-13T07:52:51;16.95;;;9.20;;
56005;SDS011;41888;44.696;10.522;2023-10-13T07:55:24;13.15;;;7.32;;
56005;SDS011;41888;44.696;10.522;2023-10-13T07:57:50;16.10;;;7.68;;
56005;SDS011;41888;44.696;10.522;2023-10-13T08:00:20;13.35;;;8.10;;
56005;SDS011;41888;44.696;10.522;2023-10-13T08:03:05;14.82;;;8.38;;
56005;SDS011;41888;44.696;10.522;2023-10-13T08:05:42;17.42;;;7.90;;
56005;SDS011;41888;44.696;10.522;2023-10-13T08:08:28;11.30;;;7.32;;
56005;SDS011;41888;44.696;10.522;2023-10-13T08:11:03;14.77;;;7.30;;
56005;SDS011;41888;44.696;10.522;2023-10-13T08:13:48;12.75;;;7.43;;
56005;SDS011;41888;44.696;10.522;2023-10-13T08:16:24;15.63;;;7.30;;
56005;SDS011;41888;44.696;10.522;2023-10-13T08:19:16;14.05;;;7.60;;
56005;SDS011;41888;44.696;10.522;2023-10-13T08:21:45;13.57;;;7.85;;
56005;SDS011;41888;44.696;10.522;2023-10-13T08:24:22;13.48;;;8.02;;
56005;SDS011;41888;44.696;10.522;2023-10-13T08:27:05;14.95;;;7.10;;
56005;SDS011;41888;44.696;10.522;2023-10-13T08:29:51;13.05;;;6.60;;
56005;SDS011;41888;44.696;10.522;2023-10-13T08:32:20;13.68;;;6.82;;
56005;SDS011;41888;44.696;10.522;2023-10-13T08:34:54;12.90;;;6.18;;
56005;SDS011;41888;44.696;10.522;2023-10-13T08:37:23;14.93;;;7.03;;
56005;SDS011;41888;44.696;10.522;2023-10-13T08:40:13;12.80;;;7.18;;
56005;SDS011;41888;44.696;10.522;2023-10-13T08:43:06;11.10;;;7.30;;
56005;SDS011;41888;44.696;10.522;2023-10-13T08:45:37;14.93;;;7.95;;
56005;SDS011;41888;44.696;10.522;2023-10-13T08:48:07;10.75;;;6.82;;
56005;SDS011;41888;44.696;10.522;2023-10-13T08:53:24;13.80;;;6.68;;
56005;SDS011;41888;44.696;10.522;2023-10-13T08:58:35;15.85;;;9.85;;
56005;SDS011;41888;44.696;10.522;2023-10-13T09:04:17;13.95;;;8.73;;
56005;SDS011;41888;44.696;10.522;2023-10-13T09:06:44;16.75;;;8.75;;
56005;SDS011;41888;44.696;10.522;2023-10-13T09:12:23;19.15;;;10.50;;
56005;SDS011;41888;44.696;10.522;2023-10-13T09:15:00;16.13;;;9.73;;
56005;SDS011;41888;44.696;10.522;2023-10-13T09:17:30;17.67;;;9.32;;
56005;SDS011;41888;44.696;10.522;2023-10-13T09:20:06;18.70;;;10.35;;
56005;SDS011;41888;44.696;10.522;2023-10-13T09:22:49;21.80;;;8.55;;
56005;SDS011;41888;44.696;10.522;2023-10-13T09:25:34;17.08;;;9.20;;
56005;SDS011;41888;44.696;10.522;2023-10-13T09:28:18;16.17;;;9.90;;
56005;SDS011;41888;44.696;10.522;2023-10-13T09:30:54;13.35;;;8.70;;
56005;SDS011;41888;44.696;10.522;2023-10-13T09:33:24;15.35;;;8.95;;
56005;SDS011;41888;44.696;10.522;2023-10-13T09:36:02;15.77;;;8.07;;
56005;SDS011;41888;44.696;10.522;2023-10-13T09:38:38;15.68;;;9.05;;
56005;SDS011;41888;44.696;10.522;2023-10-13T09:41:06;12.90;;;8.02;;
56005;SDS011;41888;44.696;10.522;2023-10-13T09:43:51;18.63;;;8.73;;
56005;SDS011;41888;44.696;10.522;2023-10-13T09:46:21;19.52;;;8.85;;
56005;SDS011;41888;44.696;10.522;2023-10-13T09:48:48;14.77;;;9.38;;
56005;SDS011;41888;44.696;10.522;2023-10-13T09:51:33;14.45;;;8.30;;
56005;SDS011;41888;44.696;10.522;2023-10-13T09:54:04;13.65;;;8.18;;
56005;SDS011;41888;44.696;10.522;2023-10-13T09:56:51;15.45;;;8.35;;
56005;SDS011;41888;44.696;10.522;2023-10-13T09:59:22;15.00;;;8.52;;
56005;SDS011;41888;44.696;10.522;2023-10-13T10:01:59;13.55;;;8.40;;
56005;SDS011;41888;44.696;10.522;2023-10-13T10:04:34;15.65;;;8.23;;
56005;SDS011;41888;44.696;10.522;2023-10-13T10:07:23;17.38;;;8.65;;
56005;SDS011;41888;44.696;10.522;2023-10-13T10:09:56;11.70;;;7.68;;
56005;SDS011;41888;44.696;10.522;2023-10-13T10:18:03;12.20;;;8.10;;
56005;SDS011;41888;44.696;10.522;2023-10-13T10:20:33;13.13;;;7.28;;
56005;SDS011;41888;44.696;10.522;2023-10-13T10:23:26;15.70;;;8.07;;
56005;SDS011;41888;44.696;10.522;2023-10-13T10:26:09;16.75;;;9.27;;
56005;SDS011;41888;44.696;10.522;2023-10-13T10:28:41;13.05;;;7.25;;
56005;SDS011;41888;44.696;10.522;2023-10-13T10:31:09;13.57;;;9.40;;
56005;SDS011;41888;44.696;10.522;2023-10-13T10:33:40;12.50;;;8.05;;
56005;SDS011;41888;44.696;10.522;2023-10-13T10:36:06;17.90;;;10.38;;
56005;SDS011;41888;44.696;10.522;2023-10-13T10:38:51;22.33;;;9.73;;
56005;SDS011;41888;44.696;10.522;2023-10-13T10:41:25;14.55;;;8.80;;
56005;SDS011;41888;44.696;10.522;2023-10-13T10:44:13;16.73;;;9.45;;
56005;SDS011;41888;44.696;10.522;2023-10-13T10:47:12;17.83;;;10.00;;
56005;SDS011;41888;44.696;10.522;2023-10-13T10:50:02;18.40;;;9.23;;
56005;SDS011;41888;44.696;10.522;2023-10-13T10:52:51;18.55;;;9.55;;
56005;SDS011;41888;44.696;10.522;2023-10-13T10:55:22;16.40;;;9.30;;
56005;SDS011;41888;44.696;10.522;2023-10-13T10:57:59;16.40;;;8.27;;
56005;SDS011;41888;44.696;10.522;2023-10-13T11:00:47;18.65;;;8.23;;
56005;SDS011;41888;44.696;10.522;2023-10-13T11:03:15;18.48;;;8.95;;
56005;SDS011;41888;44.696;10.522;2023-10-13T11:05:45;14.05;;;8.70;;
56005;SDS011;41888;44.696;10.522;2023-10-13T11:08:24;13.85;;;8.68;;
56005;SDS011;41888;44.696;10.522;2023-10-13T11:10:59;18.73;;;8.90;;
56005;SDS011;41888;44.696;10.522;2023-10-13T11:13:26;12.90;;;9.15;;
56005;SDS011;41888;44.696;10.522;2023-10-13T11:15:57;14.18;;;9.95;;
56005;SDS011;41888;44.696;10.522;2023-10-13T11:18:30;15.73;;;9.32;;
56005;SDS011;41888;44.696;10.522;2023-10-13T11:21:05;14.63;;;9.10;;
56005;SDS011;41888;44.696;10.522;2023-10-13T11:23:36;15.18;;;7.97;;
56005;SDS011;41888;44.696;10.522;2023-10-13T11:26:04;18.60;;;9.20;;
56005;SDS011;41888;44.696;10.522;2023-10-13T11:28:32;16.08;;;8.48;;
56005;SDS011;41888;44.696;10.522;2023-10-13T11:30:59;21.25;;;9.68;;
56005;SDS011;41888;44.696;10.522;2023-10-13T11:33:35;15.35;;;9.50;;
56005;SDS011;41888;44.696;10.522;2023-10-13T11:36:11;13.60;;;8.57;;
56005;SDS011;41888;44.696;10.522;2023-10-13T11:38:47;13.50;;;8.77;;
56005;SDS011;41888;44.696;10.522;2023-10-13T11:41:14;19.35;;;10.02;;
56005;SDS011;41888;44.696;10.522;2023-10-13T11:43:48;15.43;;;8.50;;
56005;SDS011;41888;44.696;10.522;2023-10-13T11:46:16;19.45;;;9.82;;
56005;SDS011;41888;44.696;10.522;2023-10-13T11:49:01;14.57;;;8.40;;
56005;SDS011;41888;44.696;10.522;2023-10-13T11:51:47;14.43;;;9.52;;
56005;SDS011;41888;44.696;10.522;2023-10-13T11:54:14;17.90;;;9.00;;
56005;SDS011;41888;44.696;10.522;2023-10-13T11:56:42;18.23;;;9.68;;
56005;SDS011;41888;44.696;10.522;2023-10-13T11:59:10;22.33;;;10.90;;
56005;SDS011;41888;44.696;10.522;2023-10-13T12:01:49;21.02;;;8.27;;
56005;SDS011;41888;44.696;10.522;2023-10-13T12:04:34;11.88;;;7.53;;
56005;SDS011;41888;44.696;10.522;2023-10-13T12:07:17;16.02;;;7.50;;
56005;SDS011;41888;44.696;10.522;2023-10-13T12:10:05;12.85;;;8.20;;
56005;SDS011;41888;44.696;10.522;2023-10-13T12:12:40;18.42;;;9.00;;
56005;SDS011;41888;44.696;10.522;2023-10-13T12:15:08;11.75;;;7.35;;
56005;SDS011;41888;44.696;10.522;2023-10-13T12:17:38;10.45;;;7.50;;
56005;SDS011;41888;44.696;10.522;2023-10-13T12:20:09;11.52;;;7.45;;
56005;SDS011;41888;44.696;10.522;2023-10-13T12:22:42;11.18;;;7.55;;
56005;SDS011;41888;44.696;10.522;2023-10-13T12:25:16;16.42;;;8.10;;
56005;SDS011;41888;44.696;10.522;2023-10-13T12:28:11;16.50;;;8.52;;
56005;SDS011;41888;44.696;10.522;2023-10-13T12:30:43;13.38;;;7.95;;
56005;SDS011;41888;44.696;10.522;2023-10-13T12:33:18;15.02;;;7.97;;
56005;SDS011;41888;44.696;10.522;2023-10-13T12:35:55;10.57;;;6.93;;
56005;SDS011;41888;44.696;10.522;2023-10-13T12:38:55;16.83;;;9.05;;
56005;SDS011;41888;44.696;10.522;2023-10-13T12:41:33;11.00;;;7.13;;
56005;SDS011;41888;44.696;10.522;2023-10-13T12:44:18;18.50;;;8.30;;
56005;SDS011;41888;44.696;10.522;2023-10-13T12:47:03;14.88;;;8.02;;
56005;SDS011;41888;44.696;10.522;2023-10-13T12:49:47;13.80;;;8.55;;
56005;SDS011;41888;44.696;10.522;2023-10-13T12:52:14;12.73;;;6.63;;
56005;SDS011;41888;44.696;10.522;2023-10-13T12:54:44;12.90;;;6.93;;
56005;SDS011;41888;44.696;10.522;2023-10-13T12:57:24;13.45;;;6.78;;
56005;SDS011;41888;44.696;10.522;2023-10-13T12:59:51;12.02;;;7.63;;
56005;SDS011;41888;44.696;10.522;2023-10-13T13:02:21;14.82;;;7.82;;
56005;SDS011;41888;44.696;10.522;2023-10-13T13:04:51;11.95;;;6.72;;
56005;SDS011;41888;44.696;10.522;2023-10-13T13:07:40;13.25;;;7.07;;
56005;SDS011;41888;44.696;10.522;2023-10-13T13:10:13;12.23;;;7.63;;
56005;SDS011;41888;44.696;10.522;2023-10-13T13:12:40;12.07;;;7.82;;
56005;SDS011;41888;44.696;10.522;2023-10-13T13:15:06;16.55;;;7.40;;
56005;SDS011;41888;44.696;10.522;2023-10-13T13:17:34;11.88;;;6.03;;
56005;SDS011;41888;44.696;10.522;2023-10-13T13:20:01;10.43;;;6.80;;
56005;SDS011;41888;44.696;10.522;2023-10-13T13:22:36;14.95;;;7.38;;
56005;SDS011;41888;44.696;10.522;2023-10-13T13:25:03;14.55;;;8.73;;
56005;SDS011;41888;44.696;10.522;2023-10-13T13:27:34;16.52;;;7.97;;
56005;SDS011;41888;44.696;10.522;2023-10-13T13:30:01;13.27;;;8.38;;
56005;SDS011;41888;44.696;10.522;2023-10-13T13:32:37;12.13;;;6.13;;
56005;SDS011;41888;44.696;10.522;2023-10-13T13:35:05;13.55;;;7.78;;
56005;SDS011;41888;44.696;10.522;2023-10-13T13:37:33;12.20;;;8.00;;
56005;SDS011;41888;44.696;10.522;2023-10-13T13:39:59;13.85;;;7.57;;
56005;SDS011;41888;44.696;10.522;2023-10-13T13:42:47;14.45;;;7.53;;
56005;SDS011;41888;44.696;10.522;2023-10-13T13:45:16;17.20;;;8.18;;
56005;SDS011;41888;44.696;10.522;2023-10-13T13:47:48;12.02;;;7.57;;
56005;SDS011;41888;44.696;10.522;2023-10-13T13:50:21;14.02;;;7.75;;
56005;SDS011;41888;44.696;10.522;2023-10-13T13:52:55;16.45;;;8.60;;
56005;SDS011;41888;44.696;10.522;2023-10-13T13:55:22;13.75;;;8.52;;
56005;SDS011;41888;44.696;10.522;2023-10-13T13:57:50;12.85;;;7.47;;
56005;SDS011;41888;44.696;10.522;2023-10-13T14:00:17;17.67;;;8.05;;
56005;SDS011;41888;44.696;10.522;2023-10-13T14:03:02;12.32;;;7.43;;
56005;SDS011;41888;44.696;10.522;2023-10-13T14:05:43;13.90;;;8.35;;
56005;SDS011;41888;44.696;10.522;2023-10-13T14:08:10;16.23;;;8.45;;
56005;SDS011;41888;44.696;10.522;2023-10-13T14:10:38;12.40;;;7.72;;
56005;SDS011;41888;44.696;10.522;2023-10-13T14:13:24;19.38;;;9.40;;
56005;SDS011;41888;44.696;10.522;2023-10-13T14:16:08;13.15;;;7.50;;
56005;SDS011;41888;44.696;10.522;2023-10-13T14:18:50;16.37;;;7.97;;
56005;SDS011;41888;44.696;10.522;2023-10-13T14:21:17;17.45;;;8.13;;
56005;SDS011;41888;44.696;10.522;2023-10-13T14:23:48;15.25;;;8.48;;
56005;SDS011;41888;44.696;10.522;2023-10-13T14:26:16;17.25;;;8.77;;
56005;SDS011;41888;44.696;10.522;2023-10-13T14:28:46;13.23;;;8.70;;
56005;SDS011;41888;44.696;10.522;2023-10-13T14:31:32;16.33;;;8.75;;
56005;SDS011;41888;44.696;10.522;2023-10-13T14:33:58;13.13;;;7.80;;
56005;SDS011;41888;44.696;10.522;2023-10-13T14:36:24;17.55;;;8.57;;
56005;SDS011;41888;44.696;10.522;2023-10-13T14:38:54;15.02;;;7.57;;
56005;SDS011;41888;44.696;10.522;2023-10-13T14:41:20;13.90;;;7.88;;
56005;SDS011;41888;44.696;10.522;2023-10-13T14:43:47;15.48;;;8.07;;
56005;SDS011;41888;44.696;10.522;2023-10-13T14:46:14;16.17;;;8.25;;
56005;SDS011;41888;44.696;10.522;2023-10-13T14:48:41;14.48;;;8.05;;
56005;SDS011;41888;44.696;10.522;2023-10-13T14:51:08;15.35;;;8.70;;
56005;SDS011;41888;44.696;10.522;2023-10-13T14:53:41;17.35;;;9.55;;
56005;SDS011;41888;44.696;10.522;2023-10-13T14:56:11;15.60;;;8.82;;
56005;SDS011;41888;44.696;10.522;2023-10-13T14:58:38;17.77;;;8.95;;
56005;SDS011;41888;44.696;10.522;2023-10-13T15:01:14;17.35;;;9.07;;
56005;SDS011;41888;44.696;10.522;2023-10-13T15:03:42;17.25;;;9.20;;
56005;SDS011;41888;44.696;10.522;2023-10-13T15:06:18;15.52;;;9.30;;
56005;SDS011;41888;44.696;10.522;2023-10-13T15:08:46;16.70;;;9.95;;
56005;SDS011;41888;44.696;10.522;2023-10-13T15:11:13;19.65;;;8.63;;
56005;SDS011;41888;44.696;10.522;2023-10-13T15:13:40;15.20;;;8.75;;
56005;SDS011;41888;44.696;10.522;2023-10-13T15:16:13;15.90;;;8.80;;
56005;SDS011;41888;44.696;10.522;2023-10-13T15:18:47;14.63;;;8.80;;
56005;SDS011;41888;44.696;10.522;2023-10-13T15:23:50;14.50;;;10.00;;
56005;SDS011;41888;44.696;10.522;2023-10-13T15:26:17;20.83;;;9.32;;
56005;SDS011;41888;44.696;10.522;2023-10-13T15:28:46;16.23;;;9.05;;